sensor_id;sensor_type;location;lat;lon;timestamp;pressure;altitude;pressure_sealevel;temperature;humidity
69035;BME280;56091;55.756;37.412;2023-02-12T00:03:00;97567.84;;;-1.90;85.83
69035;BME280;56091;55.756;37.412;2023-02-12T00:08:01;97582.19;;;-1.79;84.37
69035;BME280;56091;55.756;37.412;2023-02-12T00:13:02;97592.69;;;-1.91;83.55
69035;BME280;56091;55.756;37.412;2023-02-12T00:18:02;97611.22;;;-1.98;82.70
69035;BME280;56091;55.756;37.412;2023-02-12T00:23:04;97623.78;;;-2.18;83.47
69035;BME280;56091;55.756;37.412;2023-02-12T00:28:05;97656.56;;;-2.32;84.06
69035;BME280;56091;55.756;37.412;2023-02-12T00:33:06;97657.25;;;-2.50;84.71
69035;BME280;56091;55.756;37.412;2023-02-12T00:38:07;97658.34;;;-2.65;85.40
69035;BME280;56091;55.756;37.412;2023-02-12T00:43:08;97692.66;;;-2.65;84.87
69035;BME280;56091;55.756;37.412;2023-02-12T00:48:08;97700.81;;;-2.80;84.11
69035;BME280;56091;55.756;37.412;2023-02-12T00:53:09;97685.41;;;-2.89;84.67
69035;BME280;56091;55.756;37.412;2023-02-12T00:58:10;97722.97;;;-2.94;83.71
69035;BME280;56091;55.756;37.412;2023-02-12T01:03:11;97731.72;;;-2.93;83.03
69035;BME280;56091;55.756;37.412;2023-02-12T01:08:13;97751.19;;;-2.95;82.94
69035;BME280;56091;55.756;37.412;2023-02-12T01:13:14;97778.63;;;-3.09;81.32
69035;BME280;56091;55.756;37.412;2023-02-12T01:18:15;97801.97;;;-3.12;82.43
69035;BME280;56091;55.756;37.412;2023-02-12T01:23:16;97794.44;;;-3.29;81.81
69035;BME280;56091;55.756;37.412;2023-02-12T01:28:17;97807.03;;;-3.24;81.97
69035;BME280;56091;55.756;37.412;2023-02-12T01:33:18;97794.00;;;-3.53;81.31
69035;BME280;56091;55.756;37.412;2023-02-12T01:38:20;97883.31;;;-3.29;82.04
69035;BME280;56091;55.756;37.412;2023-02-12T01:43:21;97880.44;;;-3.35;82.68
69035;BME280;56091;55.756;37.412;2023-02-12T01:48:24;97882.25;;;-3.48;83.31
69035;BME280;56091;55.756;37.412;2023-02-12T01:53:32;97914.88;;;-3.56;82.30
69035;BME280;56091;55.756;37.412;2023-02-12T01:58:37;97900.22;;;-3.65;82.30
69035;BME280;56091;55.756;37.412;2023-02-12T02:03:41;97937.75;;;-3.57;82.05
69035;BME280;56091;55.756;37.412;2023-02-12T02:08:45;97951.91;;;-3.64;82.23
69035;BME280;56091;55.756;37.412;2023-02-12T02:13:46;97932.09;;;-3.60;81.46
69035;BME280;56091;55.756;37.412;2023-02-12T02:30:56;98011.38;;;-3.62;80.55
69035;BME280;56091;55.756;37.412;2023-02-12T02:41:24;98020.88;;;-3.67;80.05
69035;BME280;56091;55.756;37.412;2023-02-12T02:46:41;98035.44;;;-3.71;81.53
69035;BME280;56091;55.756;37.412;2023-02-12T02:51:47;98037.59;;;-3.82;82.50
69035;BME280;56091;55.756;37.412;2023-02-12T02:56:55;98076.69;;;-3.85;82.44
69035;BME280;56091;55.756;37.412;2023-02-12T03:02:02;98092.28;;;-3.90;82.27
69035;BME280;56091;55.756;37.412;2023-02-12T03:07:13;98086.56;;;-3.94;82.00
69035;BME280;56091;55.756;37.412;2023-02-12T03:12:21;98097.28;;;-3.96;83.14
69035;BME280;56091;55.756;37.412;2023-02-12T03:17:31;98162.91;;;-4.01;82.67
69035;BME280;56091;55.756;37.412;2023-02-12T03:22:38;98122.66;;;-4.16;83.74
69035;BME280;56091;55.756;37.412;2023-02-12T03:27:46;98164.16;;;-4.18;82.88
69035;BME280;56091;55.756;37.412;2023-02-12T03:33:02;98150.19;;;-4.19;82.55
69035;BME280;56091;55.756;37.412;2023-02-12T03:38:19;98155.00;;;-4.22;82.64
69035;BME280;56091;55.756;37.412;2023-02-12T03:43:26;98196.53;;;-4.24;82.39
69035;BME280;56091;55.756;37.412;2023-02-12T03:48:37;98205.22;;;-4.24;81.70
69035;BME280;56091;55.756;37.412;2023-02-12T03:53:41;98167.50;;;-4.46;80.37
69035;BME280;56091;55.756;37.412;2023-02-12T03:58:44;98204.97;;;-4.29;78.23
69035;BME280;56091;55.756;37.412;2023-02-12T04:03:46;98206.03;;;-4.23;77.36
69035;BME280;56091;55.756;37.412;2023-02-12T04:08:47;98229.53;;;-4.43;76.21
69035;BME280;56091;55.756;37.412;2023-02-12T04:18:55;98266.63;;;-4.38;76.05
69035;BME280;56091;55.756;37.412;2023-02-12T04:29:17;98289.06;;;-4.42;75.24
69035;BME280;56091;55.756;37.412;2023-02-12T04:34:27;98280.34;;;-4.43;75.09
69035;BME280;56091;55.756;37.412;2023-02-12T04:39:35;98298.44;;;-4.55;73.98
69035;BME280;56091;55.756;37.412;2023-02-12T04:44:41;98332.66;;;-4.40;73.73
69035;BME280;56091;55.756;37.412;2023-02-12T04:49:42;98337.81;;;-4.46;73.52
69035;BME280;56091;55.756;37.412;2023-02-12T04:54:43;98370.16;;;-4.38;73.92
69035;BME280;56091;55.756;37.412;2023-02-12T04:59:45;98367.97;;;-4.49;75.17
69035;BME280;56091;55.756;37.412;2023-02-12T05:04:48;98362.69;;;-4.64;76.02
69035;BME280;56091;55.756;37.412;2023-02-12T05:09:49;98376.03;;;-4.65;77.16
69035;BME280;56091;55.756;37.412;2023-02-12T05:14:50;98390.00;;;-4.50;77.11
69035;BME280;56091;55.756;37.412;2023-02-12T05:19:51;98396.19;;;-4.58;75.87
69035;BME280;56091;55.756;37.412;2023-02-12T05:24:51;98408.78;;;-4.68;75.46
69035;BME280;56091;55.756;37.412;2023-02-12T05:29:55;98422.78;;;-4.53;76.05
69035;BME280;56091;55.756;37.412;2023-02-12T05:34:56;98448.09;;;-4.52;75.35
69035;BME280;56091;55.756;37.412;2023-02-12T05:39:57;98456.81;;;-4.66;74.24
69035;BME280;56091;55.756;37.412;2023-02-12T05:44:58;98507.22;;;-4.77;73.55
69035;BME280;56091;55.756;37.412;2023-02-12T05:49:59;98446.88;;;-4.79;73.98
69035;BME280;56091;55.756;37.412;2023-02-12T05:55:00;98497.19;;;-4.82;73.45
69035;BME280;56091;55.756;37.412;2023-02-12T06:00:02;98480.38;;;-4.73;73.96
69035;BME280;56091;55.756;37.412;2023-02-12T06:05:12;98404.31;;;-5.28;72.07
69035;BME280;56091;55.756;37.412;2023-02-12T06:10:14;98508.25;;;-4.86;71.50
69035;BME280;56091;55.756;37.412;2023-02-12T06:15:15;98525.91;;;-4.95;71.65
69035;BME280;56091;55.756;37.412;2023-02-12T06:20:15;98501.53;;;-5.12;72.09
69035;BME280;56091;55.756;37.412;2023-02-12T06:25:16;98547.63;;;-4.93;72.04
69035;BME280;56091;55.756;37.412;2023-02-12T06:30:17;98557.19;;;-5.00;71.85
69035;BME280;56091;55.756;37.412;2023-02-12T06:35:18;98608.94;;;-4.93;71.73
69035;BME280;56091;55.756;37.412;2023-02-12T06:40:22;98583.44;;;-4.92;71.74
69035;BME280;56091;55.756;37.412;2023-02-12T06:45:23;98597.56;;;-4.85;71.01
69035;BME280;56091;55.756;37.412;2023-02-12T06:50:27;98638.69;;;-4.92;69.97
69035;BME280;56091;55.756;37.412;2023-02-12T06:55:28;98628.56;;;-5.03;70.22
69035;BME280;56091;55.756;37.412;2023-02-12T07:00:32;98661.28;;;-5.06;71.04
69035;BME280;56091;55.756;37.412;2023-02-12T07:05:32;98663.28;;;-5.08;70.16
69035;BME280;56091;55.756;37.412;2023-02-12T07:10:37;98645.75;;;-4.84;70.29
69035;BME280;56091;55.756;37.412;2023-02-12T07:15:38;98650.34;;;-4.86;69.62
69035;BME280;56091;55.756;37.412;2023-02-12T07:20:40;98666.09;;;-4.78;68.95
69035;BME280;56091;55.756;37.412;2023-02-12T07:25:41;98677.53;;;-4.94;69.18
69035;BME280;56091;55.756;37.412;2023-02-12T07:30:42;98674.19;;;-4.80;67.86
69035;BME280;56091;55.756;37.412;2023-02-12T07:35:42;98706.75;;;-4.81;67.58
69035;BME280;56091;55.756;37.412;2023-02-12T07:40:43;98705.66;;;-5.03;67.50
69035;BME280;56091;55.756;37.412;2023-02-12T07:45:44;98723.13;;;-5.18;66.68
69035;BME280;56091;55.756;37.412;2023-02-12T07:50:45;98733.94;;;-5.05;67.06
69035;BME280;56091;55.756;37.412;2023-02-12T07:55:46;98718.81;;;-4.95;67.15
69035;BME280;56091;55.756;37.412;2023-02-12T08:00:46;98748.03;;;-4.90;66.44
69035;BME280;56091;55.756;37.412;2023-02-12T08:05:47;98712.72;;;-5.03;66.21
69035;BME280;56091;55.756;37.412;2023-02-12T08:10:48;98680.28;;;-5.43;66.00
69035;BME280;56091;55.756;37.412;2023-02-12T08:15:49;98765.47;;;-4.88;66.11
69035;BME280;56091;55.756;37.412;2023-02-12T08:20:50;98784.72;;;-4.88;65.04
69035;BME280;56091;55.756;37.412;2023-02-12T08:25:50;98776.19;;;-4.98;64.57
69035;BME280;56091;55.756;37.412;2023-02-12T08:31:02;98787.03;;;-4.93;64.41
69035;BME280;56091;55.756;37.412;2023-02-12T08:36:06;98823.56;;;-4.98;64.08
69035;BME280;56091;55.756;37.412;2023-02-12T08:41:11;98798.03;;;-4.90;63.99
69035;BME280;56091;55.756;37.412;2023-02-12T08:46:21;98809.75;;;-5.25;64.13
69035;BME280;56091;55.756;37.412;2023-02-12T08:51:25;98812.34;;;-4.76;63.82
69035;BME280;56091;55.756;37.412;2023-02-12T08:56:28;98821.53;;;-4.72;63.94
69035;BME280;56091;55.756;37.412;2023-02-12T09:01:32;98833.56;;;-4.85;62.56
69035;BME280;56091;55.756;37.412;2023-02-12T09:06:34;98830.78;;;-4.92;62.38
69035;BME280;56091;55.756;37.412;2023-02-12T09:11:35;98834.69;;;-4.72;62.19
69035;BME280;56091;55.756;37.412;2023-02-12T09:16:37;98843.59;;;-4.89;62.01
69035;BME280;56091;55.756;37.412;2023-02-12T09:21:40;98883.06;;;-4.64;62.57
69035;BME280;56091;55.756;37.412;2023-02-12T09:26:41;98846.94;;;-4.31;62.50
69035;BME280;56091;55.756;37.412;2023-02-12T09:31:42;98852.19;;;-4.31;63.61
69035;BME280;56091;55.756;37.412;2023-02-12T09:36:43;98880.69;;;-4.35;63.28
69035;BME280;56091;55.756;37.412;2023-02-12T09:42:08;98858.78;;;-4.35;62.96
69035;BME280;56091;55.756;37.412;2023-02-12T09:47:35;98850.09;;;-4.36;63.11
69035;BME280;56091;55.756;37.412;2023-02-12T09:52:35;98845.53;;;-4.58;63.32
69035;BME280;56091;55.756;37.412;2023-02-12T09:57:37;98926.63;;;-4.45;62.83
69035;BME280;56091;55.756;37.412;2023-02-12T10:02:39;98890.06;;;-4.40;62.93
69035;BME280;56091;55.756;37.412;2023-02-12T10:13:00;98885.41;;;-4.22;61.55
69035;BME280;56091;55.756;37.412;2023-02-12T10:28:51;98907.78;;;-4.18;61.66
69035;BME280;56091;55.756;37.412;2023-02-12T10:33:53;98931.16;;;-3.98;61.72
69035;BME280;56091;55.756;37.412;2023-02-12T10:39:17;98916.16;;;-3.98;62.04
69035;BME280;56091;55.756;37.412;2023-02-12T10:44:20;98937.78;;;-3.71;61.06
69035;BME280;56091;55.756;37.412;2023-02-12T10:49:21;98936.59;;;-3.60;61.45
69035;BME280;56091;55.756;37.412;2023-02-12T10:54:38;98946.16;;;-3.59;62.04
69035;BME280;56091;55.756;37.412;2023-02-12T10:59:41;98949.84;;;-3.77;61.82
69035;BME280;56091;55.756;37.412;2023-02-12T11:04:43;98946.09;;;-3.90;62.09
69035;BME280;56091;55.756;37.412;2023-02-12T11:09:46;98951.75;;;-4.10;62.70
69035;BME280;56091;55.756;37.412;2023-02-12T11:14:53;98966.56;;;-4.09;62.40
69035;BME280;56091;55.756;37.412;2023-02-12T11:25:14;98986.84;;;-4.26;62.94
69035;BME280;56091;55.756;37.412;2023-02-12T11:30:20;98989.16;;;-4.23;63.01
69035;BME280;56091;55.756;37.412;2023-02-12T11:35:22;99028.94;;;-3.93;63.30
69035;BME280;56091;55.756;37.412;2023-02-12T11:40:30;99024.53;;;-4.01;63.73
69035;BME280;56091;55.756;37.412;2023-02-12T11:45:41;99039.19;;;-4.15;63.37
69035;BME280;56091;55.756;37.412;2023-02-12T11:50:49;99052.53;;;-4.16;64.21
69035;BME280;56091;55.756;37.412;2023-02-12T11:55:54;99043.16;;;-4.43;64.10
69035;BME280;56091;55.756;37.412;2023-02-12T12:01:02;99056.81;;;-4.48;64.03
69035;BME280;56091;55.756;37.412;2023-02-12T12:17:10;99106.97;;;-4.66;64.36
69035;BME280;56091;55.756;37.412;2023-02-12T12:44:03;99145.66;;;-4.58;63.11
69035;BME280;56091;55.756;37.412;2023-02-12T13:05:22;99170.38;;;-4.94;65.30
69035;BME280;56091;55.756;37.412;2023-02-12T13:10:42;99147.03;;;-4.88;64.98
69035;BME280;56091;55.756;37.412;2023-02-12T13:16:10;99168.34;;;-4.57;64.52
69035;BME280;56091;55.756;37.412;2023-02-12T13:31:32;99202.69;;;-4.24;64.02
69035;BME280;56091;55.756;37.412;2023-02-12T13:36:36;99192.25;;;-4.51;64.51
69035;BME280;56091;55.756;37.412;2023-02-12T13:41:39;99186.31;;;-4.61;64.68
69035;BME280;56091;55.756;37.412;2023-02-12T13:46:55;99203.06;;;-4.70;64.97
69035;BME280;56091;55.756;37.412;2023-02-12T13:52:31;99227.31;;;-4.84;65.26
69035;BME280;56091;55.756;37.412;2023-02-12T13:57:38;99217.66;;;-4.76;65.88
69035;BME280;56091;55.756;37.412;2023-02-12T14:02:41;99209.34;;;-4.63;64.92
69035;BME280;56091;55.756;37.412;2023-02-12T14:12:46;99214.25;;;-4.68;65.56
69035;BME280;56091;55.756;37.412;2023-02-12T14:17:55;99224.06;;;-4.78;66.05
69035;BME280;56091;55.756;37.412;2023-02-12T14:23:24;99232.41;;;-4.91;66.21
69035;BME280;56091;55.756;37.412;2023-02-12T14:49:47;99281.88;;;-5.39;68.81
69035;BME280;56091;55.756;37.412;2023-02-12T14:54:53;99306.06;;;-5.35;69.28
69035;BME280;56091;55.756;37.412;2023-02-12T15:05:23;99294.00;;;-5.46;69.64
69035;BME280;56091;55.756;37.412;2023-02-12T15:10:30;99287.00;;;-5.55;69.93
69035;BME280;56091;55.756;37.412;2023-02-12T15:15:38;99321.09;;;-5.45;69.73
69035;BME280;56091;55.756;37.412;2023-02-12T15:20:50;99335.22;;;-5.46;69.92
69035;BME280;56091;55.756;37.412;2023-02-12T15:25:55;99336.56;;;-5.60;70.09
69035;BME280;56091;55.756;37.412;2023-02-12T15:30:56;99328.41;;;-5.57;70.60
69035;BME280;56091;55.756;37.412;2023-02-12T15:35:58;99327.25;;;-5.55;70.56
69035;BME280;56091;55.756;37.412;2023-02-12T15:41:01;99340.94;;;-5.51;70.31
69035;BME280;56091;55.756;37.412;2023-02-12T15:46:15;99321.19;;;-5.55;70.41
69035;BME280;56091;55.756;37.412;2023-02-12T15:51:33;99330.72;;;-5.54;70.28
69035;BME280;56091;55.756;37.412;2023-02-12T15:56:39;99333.34;;;-5.54;70.40
69035;BME280;56091;55.756;37.412;2023-02-12T16:06:54;99321.63;;;-5.78;69.87
69035;BME280;56091;55.756;37.412;2023-02-12T16:11:57;99356.19;;;-5.55;70.16
69035;BME280;56091;55.756;37.412;2023-02-12T16:16:59;99358.41;;;-5.60;70.08
69035;BME280;56091;55.756;37.412;2023-02-12T16:22:07;99368.25;;;-5.62;70.26
69035;BME280;56091;55.756;37.412;2023-02-12T16:27:19;99373.97;;;-5.66;70.23
69035;BME280;56091;55.756;37.412;2023-02-12T16:32:41;99365.91;;;-5.83;70.28
69035;BME280;56091;55.756;37.412;2023-02-12T16:37:51;99391.38;;;-5.83;70.30
69035;BME280;56091;55.756;37.412;2023-02-12T16:42:57;99391.78;;;-5.88;70.37
69035;BME280;56091;55.756;37.412;2023-02-12T16:48:15;99396.03;;;-5.95;70.72
69035;BME280;56091;55.756;37.412;2023-02-12T16:53:32;99391.34;;;-6.01;70.99
69035;BME280;56091;55.756;37.412;2023-02-12T16:58:34;99389.84;;;-6.04;70.96
69035;BME280;56091;55.756;37.412;2023-02-12T17:03:36;99401.47;;;-6.06;71.15
69035;BME280;56091;55.756;37.412;2023-02-12T17:08:36;99405.88;;;-6.07;71.36
69035;BME280;56091;55.756;37.412;2023-02-12T17:13:37;99391.81;;;-6.16;71.53
69035;BME280;56091;55.756;37.412;2023-02-12T17:18:39;99380.28;;;-6.33;71.55
69035;BME280;56091;55.756;37.412;2023-02-12T17:23:41;99389.13;;;-6.34;71.74
69035;BME280;56091;55.756;37.412;2023-02-12T17:28:41;99415.38;;;-6.34;72.08
69035;BME280;56091;55.756;37.412;2023-02-12T17:33:45;99416.50;;;-6.36;72.23
69035;BME280;56091;55.756;37.412;2023-02-12T17:38:46;99407.66;;;-6.45;72.85
69035;BME280;56091;55.756;37.412;2023-02-12T17:43:50;99399.28;;;-6.58;72.94
69035;BME280;56091;55.756;37.412;2023-02-12T17:48:51;99405.78;;;-6.62;73.46
69035;BME280;56091;55.756;37.412;2023-02-12T17:53:53;99395.84;;;-6.69;73.68
69035;BME280;56091;55.756;37.412;2023-02-12T17:58:54;99399.72;;;-6.63;73.77
69035;BME280;56091;55.756;37.412;2023-02-12T18:03:58;99389.38;;;-6.84;74.30
69035;BME280;56091;55.756;37.412;2023-02-12T18:08:59;99404.56;;;-6.78;74.74
69035;BME280;56091;55.756;37.412;2023-02-12T18:14:02;99406.09;;;-6.75;74.95
69035;BME280;56091;55.756;37.412;2023-02-12T18:19:03;99367.75;;;-6.96;74.76
69035;BME280;56091;55.756;37.412;2023-02-12T18:24:05;99403.16;;;-6.72;74.96
69035;BME280;56091;55.756;37.412;2023-02-12T18:29:06;99395.31;;;-6.82;74.96
69035;BME280;56091;55.756;37.412;2023-02-12T18:34:11;99409.94;;;-6.79;74.85
69035;BME280;56091;55.756;37.412;2023-02-12T18:39:12;99392.97;;;-6.95;75.16
69035;BME280;56091;55.756;37.412;2023-02-12T18:44:13;99411.63;;;-6.88;75.34
69035;BME280;56091;55.756;37.412;2023-02-12T18:49:14;99427.06;;;-6.85;75.36
69035;BME280;56091;55.756;37.412;2023-02-12T18:54:16;99428.19;;;-6.88;75.64
69035;BME280;56091;55.756;37.412;2023-02-12T18:59:17;99428.63;;;-6.92;75.66
69035;BME280;56091;55.756;37.412;2023-02-12T19:04:20;99434.38;;;-6.89;75.68
69035;BME280;56091;55.756;37.412;2023-02-12T19:09:25;99425.16;;;-6.93;75.91
69035;BME280;56091;55.756;37.412;2023-02-12T19:14:26;99367.19;;;-7.38;75.88
69035;BME280;56091;55.756;37.412;2023-02-12T19:19:27;99431.09;;;-7.00;76.05
69035;BME280;56091;55.756;37.412;2023-02-12T19:24:28;99401.44;;;-7.11;76.01
69035;BME280;56091;55.756;37.412;2023-02-12T19:29:31;99431.25;;;-6.92;76.16
69035;BME280;56091;55.756;37.412;2023-02-12T19:34:32;99441.88;;;-6.94;76.11
69035;BME280;56091;55.756;37.412;2023-02-12T19:39:33;99422.53;;;-7.12;76.07
69035;BME280;56091;55.756;37.412;2023-02-12T19:44:34;99381.28;;;-7.30;76.49
69035;BME280;56091;55.756;37.412;2023-02-12T19:49:35;99420.03;;;-7.04;76.58
69035;BME280;56091;55.756;37.412;2023-02-12T19:54:37;99414.41;;;-7.09;76.55
69035;BME280;56091;55.756;37.412;2023-02-12T19:59:38;99397.13;;;-7.12;76.71
69035;BME280;56091;55.756;37.412;2023-02-12T20:04:40;99379.63;;;-7.11;76.70
69035;BME280;56091;55.756;37.412;2023-02-12T20:09:41;99380.16;;;-7.08;76.25
69035;BME280;56091;55.756;37.412;2023-02-12T20:14:42;99381.25;;;-7.00;76.17
69035;BME280;56091;55.756;37.412;2023-02-12T20:19:43;99396.44;;;-6.94;75.65
69035;BME280;56091;55.756;37.412;2023-02-12T20:24:44;99378.78;;;-7.12;76.06
69035;BME280;56091;55.756;37.412;2023-02-12T20:29:45;99383.63;;;-7.07;76.63
69035;BME280;56091;55.756;37.412;2023-02-12T20:34:49;99357.56;;;-7.28;76.45
69035;BME280;56091;55.756;37.412;2023-02-12T20:39:50;99385.41;;;-7.17;76.92
69035;BME280;56091;55.756;37.412;2023-02-12T20:44:51;99380.72;;;-7.23;76.97
69035;BME280;56091;55.756;37.412;2023-02-12T20:49:52;99380.59;;;-7.32;77.29
69035;BME280;56091;55.756;37.412;2023-02-12T20:54:53;99363.88;;;-7.40;77.52
69035;BME280;56091;55.756;37.412;2023-02-12T20:59:54;99372.59;;;-7.30;77.82
69035;BME280;56091;55.756;37.412;2023-02-12T21:04:54;99368.44;;;-7.23;77.41
69035;BME280;56091;55.756;37.412;2023-02-12T21:09:55;99361.00;;;-7.28;77.37
69035;BME280;56091;55.756;37.412;2023-02-12T21:14:56;99366.94;;;-7.35;77.25
69035;BME280;56091;55.756;37.412;2023-02-12T21:19:57;99353.41;;;-7.50;77.75
69035;BME280;56091;55.756;37.412;2023-02-12T21:24:57;99378.53;;;-7.38;77.65
69035;BME280;56091;55.756;37.412;2023-02-12T21:29:58;99374.22;;;-7.39;77.43
69035;BME280;56091;55.756;37.412;2023-02-12T21:34:59;99344.41;;;-7.67;78.11
69035;BME280;56091;55.756;37.412;2023-02-12T21:40:05;99350.91;;;-7.52;78.02
69035;BME280;56091;55.756;37.412;2023-02-12T21:45:08;99355.75;;;-7.57;78.14
69035;BME280;56091;55.756;37.412;2023-02-12T21:50:09;99346.47;;;-7.71;78.13
69035;BME280;56091;55.756;37.412;2023-02-12T21:55:13;99337.53;;;-7.68;78.43
69035;BME280;56091;55.756;37.412;2023-02-12T22:00:14;99333.94;;;-7.77;78.31
69035;BME280;56091;55.756;37.412;2023-02-12T22:05:15;99326.34;;;-7.80;78.36
69035;BME280;56091;55.756;37.412;2023-02-12T22:10:19;99289.22;;;-7.95;78.44
69035;BME280;56091;55.756;37.412;2023-02-12T22:15:20;99304.81;;;-7.83;78.67
69035;BME280;56091;55.756;37.412;2023-02-12T22:20:21;99305.66;;;-7.83;78.64
69035;BME280;56091;55.756;37.412;2023-02-12T22:25:22;99317.09;;;-7.84;78.84
69035;BME280;56091;55.756;37.412;2023-02-12T22:30:23;99312.28;;;-7.89;79.11
69035;BME280;56091;55.756;37.412;2023-02-12T22:35:24;99317.22;;;-7.95;79.29
69035;BME280;56091;55.756;37.412;2023-02-12T22:40:25;99314.88;;;-7.98;79.41
69035;BME280;56091;55.756;37.412;2023-02-12T22:45:25;99317.50;;;-7.98;79.38
69035;BME280;56091;55.756;37.412;2023-02-12T22:50:26;99303.00;;;-8.12;79.42
69035;BME280;56091;55.756;37.412;2023-02-12T22:55:27;99302.31;;;-8.05;79.69
69035;BME280;56091;55.756;37.412;2023-02-12T23:00:31;99289.66;;;-7.99;79.48
69035;BME280;56091;55.756;37.412;2023-02-12T23:05:35;99297.94;;;-7.94;79.49
69035;BME280;56091;55.756;37.412;2023-02-12T23:10:36;99300.13;;;-7.99;79.34
69035;BME280;56091;55.756;37.412;2023-02-12T23:15:37;99292.81;;;-8.06;79.89
69035;BME280;56091;55.756;37.412;2023-02-12T23:20:38;99306.03;;;-8.17;79.99
69035;BME280;56091;55.756;37.412;2023-02-12T23:25:40;99286.25;;;-8.40;80.31
69035;BME280;56091;55.756;37.412;2023-02-12T23:30:41;99295.25;;;-8.24;80.53
69035;BME280;56091;55.756;37.412;2023-02-12T23:35:43;99277.34;;;-8.28;80.69
69035;BME280;56091;55.756;37.412;2023-02-12T23:40:45;99271.28;;;-8.29;81.00
69035;BME280;56091;55.756;37.412;2023-02-12T23:45:46;99261.78;;;-8.20;80.87
69035;BME280;56091;55.756;37.412;2023-02-12T23:50:47;99239.59;;;-8.16;80.72
69035;BME280;56091;55.756;37.412;2023-02-12T23:55:49;99228.31;;;-8.07;80.75
